sensor_id;sensor_type;location;lat;lon;timestamp;P1;durP1;ratioP1;P2;durP2;ratioP2
5452;SDS011;2749;53.576;9.822;2022-08-25T00:00:35;7.93;;;5.23;;
5452;SDS011;2749;53.576;9.822;2022-08-25T00:03:01;5.23;;;4.80;;
5452;SDS011;2749;53.576;9.822;2022-08-25T00:05:28;6.63;;;5.67;;
5452;SDS011;2749;53.576;9.822;2022-08-25T00:07:55;6.27;;;5.50;;
5452;SDS011;2749;53.576;9.822;2022-08-25T00:10:21;6.13;;;5.10;;
5452;SDS011;2749;53.576;9.822;2022-08-25T00:12:47;5.23;;;4.73;;
5452;SDS011;2749;53.576;9.822;2022-08-25T00:15:13;6.50;;;4.97;;
5452;SDS011;2749;53.576;9.822;2022-08-25T00:17:39;8.30;;;5.40;;
5452;SDS011;2749;53.576;9.822;2022-08-25T00:20:05;5.30;;;4.90;;
5452;SDS011;2749;53.576;9.822;2022-08-25T00:22:33;9.87;;;4.77;;
5452;SDS011;2749;53.576;9.822;2022-08-25T00:24:59;4.40;;;4.03;;
5452;SDS011;2749;53.576;9.822;2022-08-25T00:27:25;9.90;;;5.03;;
5452;SDS011;2749;53.576;9.822;2022-08-25T00:29:52;5.97;;;5.00;;
5452;SDS011;2749;53.576;9.822;2022-08-25T00:32:18;5.90;;;5.40;;
5452;SDS011;2749;53.576;9.822;2022-08-25T00:34:44;5.60;;;4.83;;
5452;SDS011;2749;53.576;9.822;2022-08-25T00:37:10;8.13;;;4.83;;
5452;SDS011;2749;53.576;9.822;2022-08-25T00:39:37;6.30;;;4.90;;
5452;SDS011;2749;53.576;9.822;2022-08-25T00:42:04;6.77;;;5.47;;
5452;SDS011;2749;53.576;9.822;2022-08-25T00:44:31;5.53;;;5.00;;
5452;SDS011;2749;53.576;9.822;2022-08-25T00:46:58;5.67;;;5.03;;
5452;SDS011;2749;53.576;9.822;2022-08-25T00:49:29;6.97;;;6.37;;
5452;SDS011;2749;53.576;9.822;2022-08-25T00:52:00;10.17;;;5.30;;
5452;SDS011;2749;53.576;9.822;2022-08-25T00:54:30;5.80;;;5.20;;
5452;SDS011;2749;53.576;9.822;2022-08-25T00:56:57;7.37;;;5.47;;
5452;SDS011;2749;53.576;9.822;2022-08-25T00:59:23;7.20;;;6.20;;
5452;SDS011;2749;53.576;9.822;2022-08-25T01:01:50;7.03;;;4.67;;
5452;SDS011;2749;53.576;9.822;2022-08-25T01:04:16;11.23;;;5.30;;
5452;SDS011;2749;53.576;9.822;2022-08-25T01:06:42;6.47;;;5.77;;
5452;SDS011;2749;53.576;9.822;2022-08-25T01:09:09;6.60;;;5.67;;
5452;SDS011;2749;53.576;9.822;2022-08-25T01:11:35;7.10;;;6.10;;
5452;SDS011;2749;53.576;9.822;2022-08-25T01:14:01;9.63;;;6.70;;
5452;SDS011;2749;53.576;9.822;2022-08-25T01:16:31;7.60;;;5.80;;
5452;SDS011;2749;53.576;9.822;2022-08-25T01:18:57;6.90;;;6.23;;
5452;SDS011;2749;53.576;9.822;2022-08-25T01:21:25;6.20;;;5.70;;
5452;SDS011;2749;53.576;9.822;2022-08-25T01:23:51;6.57;;;5.83;;
5452;SDS011;2749;53.576;9.822;2022-08-25T01:26:21;6.70;;;6.20;;
5452;SDS011;2749;53.576;9.822;2022-08-25T01:28:49;6.53;;;5.00;;
5452;SDS011;2749;53.576;9.822;2022-08-25T01:31:34;6.33;;;5.77;;
5452;SDS011;2749;53.576;9.822;2022-08-25T01:34:00;6.40;;;5.80;;
5452;SDS011;2749;53.576;9.822;2022-08-25T01:36:27;7.10;;;6.40;;
5452;SDS011;2749;53.576;9.822;2022-08-25T01:38:54;6.23;;;5.63;;
5452;SDS011;2749;53.576;9.822;2022-08-25T01:41:25;6.00;;;5.40;;
5452;SDS011;2749;53.576;9.822;2022-08-25T01:43:51;6.80;;;6.00;;
5452;SDS011;2749;53.576;9.822;2022-08-25T01:46:17;6.27;;;5.77;;
5452;SDS011;2749;53.576;9.822;2022-08-25T01:48:43;6.83;;;6.17;;
5452;SDS011;2749;53.576;9.822;2022-08-25T01:51:09;6.07;;;5.47;;
5452;SDS011;2749;53.576;9.822;2022-08-25T01:53:35;5.93;;;5.37;;
5452;SDS011;2749;53.576;9.822;2022-08-25T01:56:08;10.43;;;5.47;;
5452;SDS011;2749;53.576;9.822;2022-08-25T01:58:36;8.03;;;6.10;;
5452;SDS011;2749;53.576;9.822;2022-08-25T02:01:05;6.77;;;6.27;;
5452;SDS011;2749;53.576;9.822;2022-08-25T02:03:31;9.63;;;6.07;;
5452;SDS011;2749;53.576;9.822;2022-08-25T02:05:57;8.40;;;6.80;;
5452;SDS011;2749;53.576;9.822;2022-08-25T02:08:24;7.80;;;5.40;;
5452;SDS011;2749;53.576;9.822;2022-08-25T02:10:50;11.27;;;7.70;;
5452;SDS011;2749;53.576;9.822;2022-08-25T02:13:17;6.80;;;6.10;;
5452;SDS011;2749;53.576;9.822;2022-08-25T02:15:45;8.63;;;7.57;;
5452;SDS011;2749;53.576;9.822;2022-08-25T02:18:12;9.57;;;6.17;;
5452;SDS011;2749;53.576;9.822;2022-08-25T02:20:38;6.57;;;6.07;;
5452;SDS011;2749;53.576;9.822;2022-08-25T02:23:04;6.80;;;6.17;;
5452;SDS011;2749;53.576;9.822;2022-08-25T02:25:30;6.80;;;6.20;;
5452;SDS011;2749;53.576;9.822;2022-08-25T02:27:57;8.43;;;6.43;;
5452;SDS011;2749;53.576;9.822;2022-08-25T02:30:23;8.30;;;7.50;;
5452;SDS011;2749;53.576;9.822;2022-08-25T02:32:49;9.80;;;7.07;;
5452;SDS011;2749;53.576;9.822;2022-08-25T02:35:16;6.40;;;5.80;;
5452;SDS011;2749;53.576;9.822;2022-08-25T02:37:42;6.77;;;6.17;;
5452;SDS011;2749;53.576;9.822;2022-08-25T02:40:08;6.60;;;6.00;;
5452;SDS011;2749;53.576;9.822;2022-08-25T02:42:35;8.03;;;6.93;;
5452;SDS011;2749;53.576;9.822;2022-08-25T02:45:01;8.23;;;6.73;;
5452;SDS011;2749;53.576;9.822;2022-08-25T02:47:27;8.10;;;6.93;;
5452;SDS011;2749;53.576;9.822;2022-08-25T02:49:53;8.13;;;6.53;;
5452;SDS011;2749;53.576;9.822;2022-08-25T02:52:19;8.80;;;6.17;;
5452;SDS011;2749;53.576;9.822;2022-08-25T02:54:45;7.50;;;6.70;;
5452;SDS011;2749;53.576;9.822;2022-08-25T02:57:11;8.60;;;7.80;;
5452;SDS011;2749;53.576;9.822;2022-08-25T02:59:38;11.33;;;7.50;;
5452;SDS011;2749;53.576;9.822;2022-08-25T03:02:05;7.63;;;6.87;;
5452;SDS011;2749;53.576;9.822;2022-08-25T03:04:31;6.60;;;6.00;;
5452;SDS011;2749;53.576;9.822;2022-08-25T03:06:57;8.50;;;7.30;;
5452;SDS011;2749;53.576;9.822;2022-08-25T03:09:23;8.23;;;7.43;;
5452;SDS011;2749;53.576;9.822;2022-08-25T03:11:49;8.50;;;7.07;;
5452;SDS011;2749;53.576;9.822;2022-08-25T03:14:15;6.83;;;6.20;;
5452;SDS011;2749;53.576;9.822;2022-08-25T03:16:41;7.37;;;6.67;;
5452;SDS011;2749;53.576;9.822;2022-08-25T03:19:08;8.93;;;6.20;;
5452;SDS011;2749;53.576;9.822;2022-08-25T03:21:37;9.67;;;7.37;;
5452;SDS011;2749;53.576;9.822;2022-08-25T03:24:04;8.27;;;7.20;;
5452;SDS011;2749;53.576;9.822;2022-08-25T03:26:30;8.10;;;6.63;;
5452;SDS011;2749;53.576;9.822;2022-08-25T03:29:14;8.50;;;7.20;;
5452;SDS011;2749;53.576;9.822;2022-08-25T03:31:42;8.10;;;7.30;;
5452;SDS011;2749;53.576;9.822;2022-08-25T03:34:11;8.37;;;7.07;;
5452;SDS011;2749;53.576;9.822;2022-08-25T03:36:38;8.47;;;7.63;;
5452;SDS011;2749;53.576;9.822;2022-08-25T03:39:04;8.63;;;7.73;;
5452;SDS011;2749;53.576;9.822;2022-08-25T03:41:32;9.43;;;8.07;;
5452;SDS011;2749;53.576;9.822;2022-08-25T03:43:58;7.70;;;7.10;;
5452;SDS011;2749;53.576;9.822;2022-08-25T03:46:28;12.57;;;7.80;;
5452;SDS011;2749;53.576;9.822;2022-08-25T03:48:54;15.53;;;7.30;;
5452;SDS011;2749;53.576;9.822;2022-08-25T03:51:25;11.73;;;8.17;;
5452;SDS011;2749;53.576;9.822;2022-08-25T03:53:51;8.13;;;7.30;;
5452;SDS011;2749;53.576;9.822;2022-08-25T03:56:18;8.70;;;7.07;;
5452;SDS011;2749;53.576;9.822;2022-08-25T03:58:44;8.80;;;7.83;;
5452;SDS011;2749;53.576;9.822;2022-08-25T04:01:10;8.30;;;7.50;;
5452;SDS011;2749;53.576;9.822;2022-08-25T04:03:36;8.13;;;7.33;;
5452;SDS011;2749;53.576;9.822;2022-08-25T04:06:03;8.53;;;7.73;;
5452;SDS011;2749;53.576;9.822;2022-08-25T04:08:29;10.97;;;8.50;;
5452;SDS011;2749;53.576;9.822;2022-08-25T04:10:55;9.07;;;8.17;;
5452;SDS011;2749;53.576;9.822;2022-08-25T04:13:21;8.90;;;7.10;;
5452;SDS011;2749;53.576;9.822;2022-08-25T04:15:47;8.03;;;7.23;;
5452;SDS011;2749;53.576;9.822;2022-08-25T04:18:13;9.73;;;7.20;;
5452;SDS011;2749;53.576;9.822;2022-08-25T04:20:40;8.70;;;7.87;;
5452;SDS011;2749;53.576;9.822;2022-08-25T04:23:06;8.30;;;7.60;;
5452;SDS011;2749;53.576;9.822;2022-08-25T04:25:32;8.70;;;7.90;;
5452;SDS011;2749;53.576;9.822;2022-08-25T04:27:58;8.70;;;7.80;;
5452;SDS011;2749;53.576;9.822;2022-08-25T04:30:24;8.10;;;7.03;;
5452;SDS011;2749;53.576;9.822;2022-08-25T04:32:49;7.90;;;7.30;;
5452;SDS011;2749;53.576;9.822;2022-08-25T04:35:15;8.53;;;7.57;;
5452;SDS011;2749;53.576;9.822;2022-08-25T04:37:41;9.13;;;8.40;;
5452;SDS011;2749;53.576;9.822;2022-08-25T04:40:08;8.40;;;7.70;;
5452;SDS011;2749;53.576;9.822;2022-08-25T04:42:34;8.70;;;8.00;;
5452;SDS011;2749;53.576;9.822;2022-08-25T04:45:00;8.70;;;7.33;;
5452;SDS011;2749;53.576;9.822;2022-08-25T04:47:27;9.93;;;8.00;;
5452;SDS011;2749;53.576;9.822;2022-08-25T04:49:53;8.20;;;7.40;;
5452;SDS011;2749;53.576;9.822;2022-08-25T04:52:19;10.03;;;7.47;;
5452;SDS011;2749;53.576;9.822;2022-08-25T04:54:45;8.07;;;7.37;;
5452;SDS011;2749;53.576;9.822;2022-08-25T04:57:11;8.87;;;7.43;;
5452;SDS011;2749;53.576;9.822;2022-08-25T04:59:37;10.13;;;7.67;;
5452;SDS011;2749;53.576;9.822;2022-08-25T05:02:03;8.57;;;7.60;;
5452;SDS011;2749;53.576;9.822;2022-08-25T05:04:30;8.57;;;7.77;;
5452;SDS011;2749;53.576;9.822;2022-08-25T05:06:57;10.03;;;8.23;;
5452;SDS011;2749;53.576;9.822;2022-08-25T05:09:23;10.00;;;8.47;;
5452;SDS011;2749;53.576;9.822;2022-08-25T05:11:49;8.57;;;7.70;;
5452;SDS011;2749;53.576;9.822;2022-08-25T05:14:15;9.50;;;8.17;;
5452;SDS011;2749;53.576;9.822;2022-08-25T05:16:45;9.33;;;8.27;;
5452;SDS011;2749;53.576;9.822;2022-08-25T05:19:11;8.13;;;7.43;;
5452;SDS011;2749;53.576;9.822;2022-08-25T05:21:37;8.23;;;7.53;;
5452;SDS011;2749;53.576;9.822;2022-08-25T05:24:03;9.17;;;8.17;;
5452;SDS011;2749;53.576;9.822;2022-08-25T05:26:31;10.27;;;8.60;;
5452;SDS011;2749;53.576;9.822;2022-08-25T05:28:58;9.63;;;8.00;;
5452;SDS011;2749;53.576;9.822;2022-08-25T05:31:24;10.37;;;8.60;;
5452;SDS011;2749;53.576;9.822;2022-08-25T05:33:51;9.30;;;8.27;;
5452;SDS011;2749;53.576;9.822;2022-08-25T05:36:17;11.37;;;9.13;;
5452;SDS011;2749;53.576;9.822;2022-08-25T05:38:44;9.60;;;7.07;;
5452;SDS011;2749;53.576;9.822;2022-08-25T05:41:11;8.60;;;7.40;;
5452;SDS011;2749;53.576;9.822;2022-08-25T05:43:38;11.13;;;8.70;;
5452;SDS011;2749;53.576;9.822;2022-08-25T05:46:05;11.00;;;7.83;;
5452;SDS011;2749;53.576;9.822;2022-08-25T05:48:31;11.30;;;8.60;;
5452;SDS011;2749;53.576;9.822;2022-08-25T05:50:58;9.33;;;7.73;;
5452;SDS011;2749;53.576;9.822;2022-08-25T05:53:26;8.43;;;7.30;;
5452;SDS011;2749;53.576;9.822;2022-08-25T05:55:52;9.23;;;7.80;;
5452;SDS011;2749;53.576;9.822;2022-08-25T05:58:19;10.30;;;8.27;;
5452;SDS011;2749;53.576;9.822;2022-08-25T06:00:45;8.73;;;7.77;;
5452;SDS011;2749;53.576;9.822;2022-08-25T06:03:11;8.83;;;7.93;;
5452;SDS011;2749;53.576;9.822;2022-08-25T06:05:38;8.73;;;7.90;;
5452;SDS011;2749;53.576;9.822;2022-08-25T06:08:05;10.20;;;8.27;;
5452;SDS011;2749;53.576;9.822;2022-08-25T06:10:30;10.27;;;7.63;;
5452;SDS011;2749;53.576;9.822;2022-08-25T06:12:57;14.60;;;8.40;;
5452;SDS011;2749;53.576;9.822;2022-08-25T06:15:23;8.40;;;7.50;;
5452;SDS011;2749;53.576;9.822;2022-08-25T06:17:49;11.80;;;8.20;;
5452;SDS011;2749;53.576;9.822;2022-08-25T06:20:20;7.70;;;7.00;;
5452;SDS011;2749;53.576;9.822;2022-08-25T06:22:47;8.27;;;7.47;;
5452;SDS011;2749;53.576;9.822;2022-08-25T06:25:14;7.83;;;6.80;;
5452;SDS011;2749;53.576;9.822;2022-08-25T06:27:40;9.33;;;7.27;;
5452;SDS011;2749;53.576;9.822;2022-08-25T06:30:07;11.13;;;7.03;;
5452;SDS011;2749;53.576;9.822;2022-08-25T06:32:34;9.43;;;8.50;;
5452;SDS011;2749;53.576;9.822;2022-08-25T06:35:04;7.83;;;7.10;;
5452;SDS011;2749;53.576;9.822;2022-08-25T06:37:30;9.13;;;8.17;;
5452;SDS011;2749;53.576;9.822;2022-08-25T06:39:56;9.93;;;8.70;;
5452;SDS011;2749;53.576;9.822;2022-08-25T06:42:22;12.53;;;8.73;;
5452;SDS011;2749;53.576;9.822;2022-08-25T06:44:48;13.23;;;10.50;;
5452;SDS011;2749;53.576;9.822;2022-08-25T06:47:14;14.47;;;12.10;;
5452;SDS011;2749;53.576;9.822;2022-08-25T06:49:41;14.57;;;11.77;;
5452;SDS011;2749;53.576;9.822;2022-08-25T06:52:08;13.17;;;12.00;;
5452;SDS011;2749;53.576;9.822;2022-08-25T06:54:34;27.13;;;12.27;;
5452;SDS011;2749;53.576;9.822;2022-08-25T06:57:00;16.40;;;12.50;;
5452;SDS011;2749;53.576;9.822;2022-08-25T06:59:26;17.00;;;12.13;;
5452;SDS011;2749;53.576;9.822;2022-08-25T07:01:52;15.30;;;13.77;;
5452;SDS011;2749;53.576;9.822;2022-08-25T07:04:18;16.80;;;13.13;;
5452;SDS011;2749;53.576;9.822;2022-08-25T07:06:44;20.80;;;14.37;;
5452;SDS011;2749;53.576;9.822;2022-08-25T07:09:11;17.47;;;15.30;;
5452;SDS011;2749;53.576;9.822;2022-08-25T07:11:40;16.57;;;15.03;;
5452;SDS011;2749;53.576;9.822;2022-08-25T07:14:07;18.27;;;14.33;;
5452;SDS011;2749;53.576;9.822;2022-08-25T07:16:35;17.90;;;15.70;;
5452;SDS011;2749;53.576;9.822;2022-08-25T07:19:01;20.30;;;15.97;;
5452;SDS011;2749;53.576;9.822;2022-08-25T07:21:27;16.30;;;14.60;;
5452;SDS011;2749;53.576;9.822;2022-08-25T07:23:53;19.10;;;15.93;;
5452;SDS011;2749;53.576;9.822;2022-08-25T07:26:23;18.83;;;17.00;;
5452;SDS011;2749;53.576;9.822;2022-08-25T07:28:50;24.13;;;18.77;;
5452;SDS011;2749;53.576;9.822;2022-08-25T07:31:16;18.17;;;15.30;;
5452;SDS011;2749;53.576;9.822;2022-08-25T07:33:42;16.10;;;13.40;;
5452;SDS011;2749;53.576;9.822;2022-08-25T07:36:26;16.50;;;14.53;;
5452;SDS011;2749;53.576;9.822;2022-08-25T07:38:52;19.07;;;16.17;;
5452;SDS011;2749;53.576;9.822;2022-08-25T07:41:19;16.60;;;14.87;;
5452;SDS011;2749;53.576;9.822;2022-08-25T07:43:45;16.13;;;14.50;;
5452;SDS011;2749;53.576;9.822;2022-08-25T07:46:11;16.93;;;14.37;;
5452;SDS011;2749;53.576;9.822;2022-08-25T07:48:37;15.53;;;14.07;;
5452;SDS011;2749;53.576;9.822;2022-08-25T07:51:11;14.03;;;12.47;;
5452;SDS011;2749;53.576;9.822;2022-08-25T07:53:38;15.70;;;13.67;;
5452;SDS011;2749;53.576;9.822;2022-08-25T07:56:08;14.10;;;12.60;;
5452;SDS011;2749;53.576;9.822;2022-08-25T07:58:34;15.73;;;14.23;;
5452;SDS011;2749;53.576;9.822;2022-08-25T08:01:00;15.77;;;13.00;;
5452;SDS011;2749;53.576;9.822;2022-08-25T08:03:26;12.10;;;10.90;;
5452;SDS011;2749;53.576;9.822;2022-08-25T08:05:53;13.30;;;11.30;;
5452;SDS011;2749;53.576;9.822;2022-08-25T08:08:20;11.77;;;10.57;;
5452;SDS011;2749;53.576;9.822;2022-08-25T08:10:46;14.07;;;12.63;;
5452;SDS011;2749;53.576;9.822;2022-08-25T08:13:13;20.00;;;12.00;;
5452;SDS011;2749;53.576;9.822;2022-08-25T08:15:40;16.93;;;12.57;;
5452;SDS011;2749;53.576;9.822;2022-08-25T08:18:06;13.93;;;11.53;;
5452;SDS011;2749;53.576;9.822;2022-08-25T08:20:33;13.60;;;12.20;;
5452;SDS011;2749;53.576;9.822;2022-08-25T08:22:59;15.50;;;13.27;;
5452;SDS011;2749;53.576;9.822;2022-08-25T08:25:25;15.10;;;13.50;;
5452;SDS011;2749;53.576;9.822;2022-08-25T08:27:51;13.77;;;11.27;;
5452;SDS011;2749;53.576;9.822;2022-08-25T08:30:17;12.77;;;11.57;;
5452;SDS011;2749;53.576;9.822;2022-08-25T08:32:43;13.13;;;11.97;;
5452;SDS011;2749;53.576;9.822;2022-08-25T08:35:08;12.97;;;11.67;;
5452;SDS011;2749;53.576;9.822;2022-08-25T08:37:35;14.57;;;13.07;;
5452;SDS011;2749;53.576;9.822;2022-08-25T08:40:06;14.33;;;12.93;;
5452;SDS011;2749;53.576;9.822;2022-08-25T08:42:48;15.30;;;13.37;;
5452;SDS011;2749;53.576;9.822;2022-08-25T08:45:21;13.40;;;12.07;;
5452;SDS011;2749;53.576;9.822;2022-08-25T08:48:09;11.23;;;10.13;;
5452;SDS011;2749;53.576;9.822;2022-08-25T08:53:38;11.87;;;10.67;;
5452;SDS011;2749;53.576;9.822;2022-08-25T08:56:08;11.90;;;10.80;;
5452;SDS011;2749;53.576;9.822;2022-08-25T09:01:08;11.53;;;10.47;;
5452;SDS011;2749;53.576;9.822;2022-08-25T09:03:48;10.53;;;9.27;;
5452;SDS011;2749;53.576;9.822;2022-08-25T09:06:21;11.23;;;10.13;;
5452;SDS011;2749;53.576;9.822;2022-08-25T09:08:48;10.93;;;9.60;;
5452;SDS011;2749;53.576;9.822;2022-08-25T09:14:06;11.17;;;9.77;;
5452;SDS011;2749;53.576;9.822;2022-08-25T09:24:39;12.27;;;11.07;;
5452;SDS011;2749;53.576;9.822;2022-08-25T09:30:12;11.80;;;10.87;;
5452;SDS011;2749;53.576;9.822;2022-08-25T09:32:57;11.03;;;9.97;;
5452;SDS011;2749;53.576;9.822;2022-08-25T09:35:31;10.67;;;9.87;;
5452;SDS011;2749;53.576;9.822;2022-08-25T09:38:01;14.40;;;9.80;;
5452;SDS011;2749;53.576;9.822;2022-08-25T09:40:28;11.37;;;10.27;;
5452;SDS011;2749;53.576;9.822;2022-08-25T09:42:55;9.53;;;8.63;;
5452;SDS011;2749;53.576;9.822;2022-08-25T09:45:36;12.03;;;9.60;;
5452;SDS011;2749;53.576;9.822;2022-08-25T09:50:50;13.60;;;11.27;;
5452;SDS011;2749;53.576;9.822;2022-08-25T09:53:17;12.50;;;10.30;;
5452;SDS011;2749;53.576;9.822;2022-08-25T09:55:43;11.47;;;10.30;;
5452;SDS011;2749;53.576;9.822;2022-08-25T09:58:29;14.30;;;12.80;;
5452;SDS011;2749;53.576;9.822;2022-08-25T10:00:59;10.90;;;9.90;;
5452;SDS011;2749;53.576;9.822;2022-08-25T10:03:25;12.27;;;11.20;;
5452;SDS011;2749;53.576;9.822;2022-08-25T10:11:08;12.80;;;11.50;;
5452;SDS011;2749;53.576;9.822;2022-08-25T10:16:22;11.43;;;10.17;;
5452;SDS011;2749;53.576;9.822;2022-08-25T10:21:34;12.70;;;10.87;;
5452;SDS011;2749;53.576;9.822;2022-08-25T10:24:02;11.60;;;10.60;;
5452;SDS011;2749;53.576;9.822;2022-08-25T10:26:40;13.63;;;10.80;;
5452;SDS011;2749;53.576;9.822;2022-08-25T10:29:16;12.90;;;9.73;;
5452;SDS011;2749;53.576;9.822;2022-08-25T10:31:48;11.87;;;10.63;;
5452;SDS011;2749;53.576;9.822;2022-08-25T10:34:30;15.77;;;11.93;;
5452;SDS011;2749;53.576;9.822;2022-08-25T10:37:08;13.50;;;12.10;;
5452;SDS011;2749;53.576;9.822;2022-08-25T10:39:40;13.30;;;9.83;;
5452;SDS011;2749;53.576;9.822;2022-08-25T10:42:12;15.23;;;9.80;;
5452;SDS011;2749;53.576;9.822;2022-08-25T10:44:50;12.53;;;10.40;;
5452;SDS011;2749;53.576;9.822;2022-08-25T10:47:48;12.13;;;10.93;;
5452;SDS011;2749;53.576;9.822;2022-08-25T10:50:22;10.43;;;9.63;;
5452;SDS011;2749;53.576;9.822;2022-08-25T10:52:56;10.33;;;9.43;;
5452;SDS011;2749;53.576;9.822;2022-08-25T10:58:05;11.93;;;10.73;;
5452;SDS011;2749;53.576;9.822;2022-08-25T11:00:37;10.07;;;9.07;;
5452;SDS011;2749;53.576;9.822;2022-08-25T11:05:48;11.80;;;9.47;;
5452;SDS011;2749;53.576;9.822;2022-08-25T11:08:32;10.50;;;9.40;;
5452;SDS011;2749;53.576;9.822;2022-08-25T11:12:01;10.03;;;9.17;;
5452;SDS011;2749;53.576;9.822;2022-08-25T11:13:59;9.47;;;8.67;;
5452;SDS011;2749;53.576;9.822;2022-08-25T11:16:31;9.07;;;8.07;;
5452;SDS011;2749;53.576;9.822;2022-08-25T11:19:02;10.17;;;9.27;;
5452;SDS011;2749;53.576;9.822;2022-08-25T11:21:31;8.83;;;7.90;;
5452;SDS011;2749;53.576;9.822;2022-08-25T11:24:02;9.10;;;8.30;;
5452;SDS011;2749;53.576;9.822;2022-08-25T11:26:33;10.27;;;8.80;;
5452;SDS011;2749;53.576;9.822;2022-08-25T11:29:13;14.30;;;8.03;;
5452;SDS011;2749;53.576;9.822;2022-08-25T11:31:41;9.17;;;8.10;;
5452;SDS011;2749;53.576;9.822;2022-08-25T11:34:08;8.93;;;8.00;;
5452;SDS011;2749;53.576;9.822;2022-08-25T11:36:36;11.67;;;9.87;;
5452;SDS011;2749;53.576;9.822;2022-08-25T11:39:14;10.63;;;9.13;;
5452;SDS011;2749;53.576;9.822;2022-08-25T11:41:51;8.33;;;7.13;;
5452;SDS011;2749;53.576;9.822;2022-08-25T11:47:15;9.97;;;8.03;;
5452;SDS011;2749;53.576;9.822;2022-08-25T11:49:47;8.80;;;7.40;;
5452;SDS011;2749;53.576;9.822;2022-08-25T11:52:49;8.17;;;7.40;;
5452;SDS011;2749;53.576;9.822;2022-08-25T11:55:13;12.90;;;7.70;;
5452;SDS011;2749;53.576;9.822;2022-08-25T11:57:39;8.60;;;7.67;;
5452;SDS011;2749;53.576;9.822;2022-08-25T12:02:39;7.27;;;6.57;;
5452;SDS011;2749;53.576;9.822;2022-08-25T12:05:07;5.83;;;5.23;;
5452;SDS011;2749;53.576;9.822;2022-08-25T12:10:09;7.63;;;5.80;;
5452;SDS011;2749;53.576;9.822;2022-08-25T12:17:40;7.30;;;5.73;;
5452;SDS011;2749;53.576;9.822;2022-08-25T12:20:06;6.17;;;5.53;;
5452;SDS011;2749;53.576;9.822;2022-08-25T12:25:09;7.10;;;5.87;;
5452;SDS011;2749;53.576;9.822;2022-08-25T12:30:18;5.17;;;4.77;;
5452;SDS011;2749;53.576;9.822;2022-08-25T12:32:52;5.10;;;4.70;;
5452;SDS011;2749;53.576;9.822;2022-08-25T12:35:30;5.87;;;5.37;;
5452;SDS011;2749;53.576;9.822;2022-08-25T12:38:09;5.03;;;4.57;;
5452;SDS011;2749;53.576;9.822;2022-08-25T12:40:51;5.00;;;4.50;;
5452;SDS011;2749;53.576;9.822;2022-08-25T12:43:24;4.73;;;4.30;;
5452;SDS011;2749;53.576;9.822;2022-08-25T12:45:52;4.80;;;4.40;;
5452;SDS011;2749;53.576;9.822;2022-08-25T12:56:25;6.70;;;6.10;;
5452;SDS011;2749;53.576;9.822;2022-08-25T12:59:02;6.17;;;4.90;;
5452;SDS011;2749;53.576;9.822;2022-08-25T13:01:42;5.43;;;5.03;;
5452;SDS011;2749;53.576;9.822;2022-08-25T13:04:18;5.90;;;5.40;;
5452;SDS011;2749;53.576;9.822;2022-08-25T13:07:04;5.80;;;4.80;;
5452;SDS011;2749;53.576;9.822;2022-08-25T13:12:17;7.60;;;4.90;;
5452;SDS011;2749;53.576;9.822;2022-08-25T13:14:44;6.33;;;5.30;;
5452;SDS011;2749;53.576;9.822;2022-08-25T13:17:10;5.63;;;5.20;;
5452;SDS011;2749;53.576;9.822;2022-08-25T13:19:37;4.90;;;4.27;;
5452;SDS011;2749;53.576;9.822;2022-08-25T13:22:09;5.30;;;4.80;;
5452;SDS011;2749;53.576;9.822;2022-08-25T13:24:39;4.40;;;4.10;;
5452;SDS011;2749;53.576;9.822;2022-08-25T13:27:07;5.50;;;4.90;;
5452;SDS011;2749;53.576;9.822;2022-08-25T13:29:34;7.83;;;4.90;;
5452;SDS011;2749;53.576;9.822;2022-08-25T13:32:02;5.77;;;5.20;;
5452;SDS011;2749;53.576;9.822;2022-08-25T13:34:33;9.00;;;4.80;;
5452;SDS011;2749;53.576;9.822;2022-08-25T13:37:06;5.80;;;4.87;;
5452;SDS011;2749;53.576;9.822;2022-08-25T13:40:05;7.50;;;4.80;;
5452;SDS011;2749;53.576;9.822;2022-08-25T13:42:32;5.93;;;4.37;;
5452;SDS011;2749;53.576;9.822;2022-08-25T13:44:58;4.87;;;4.43;;
5452;SDS011;2749;53.576;9.822;2022-08-25T13:47:31;5.73;;;4.80;;
5452;SDS011;2749;53.576;9.822;2022-08-25T13:50:13;5.00;;;4.60;;
5452;SDS011;2749;53.576;9.822;2022-08-25T13:52:39;7.77;;;5.23;;
5452;SDS011;2749;53.576;9.822;2022-08-25T13:55:06;5.00;;;4.53;;
5452;SDS011;2749;53.576;9.822;2022-08-25T13:57:32;3.87;;;3.50;;
5452;SDS011;2749;53.576;9.822;2022-08-25T14:00:08;5.53;;;4.43;;
5452;SDS011;2749;53.576;9.822;2022-08-25T14:05:07;7.33;;;4.47;;
5452;SDS011;2749;53.576;9.822;2022-08-25T14:07:33;5.53;;;4.73;;
5452;SDS011;2749;53.576;9.822;2022-08-25T14:10:02;4.93;;;4.50;;
5452;SDS011;2749;53.576;9.822;2022-08-25T14:17:47;5.80;;;4.53;;
5452;SDS011;2749;53.576;9.822;2022-08-25T14:20:21;7.13;;;4.70;;
5452;SDS011;2749;53.576;9.822;2022-08-25T14:22:52;5.70;;;5.20;;
5452;SDS011;2749;53.576;9.822;2022-08-25T14:25:19;5.07;;;4.57;;
5452;SDS011;2749;53.576;9.822;2022-08-25T14:27:44;6.80;;;5.20;;
5452;SDS011;2749;53.576;9.822;2022-08-25T14:30:18;4.67;;;4.27;;
5452;SDS011;2749;53.576;9.822;2022-08-25T14:32:44;4.87;;;4.47;;
5452;SDS011;2749;53.576;9.822;2022-08-25T14:35:10;5.13;;;4.50;;
5452;SDS011;2749;53.576;9.822;2022-08-25T14:37:36;8.93;;;4.57;;
5452;SDS011;2749;53.576;9.822;2022-08-25T14:40:03;5.20;;;4.70;;
5452;SDS011;2749;53.576;9.822;2022-08-25T14:42:29;5.70;;;5.27;;
5452;SDS011;2749;53.576;9.822;2022-08-25T14:44:55;4.87;;;4.20;;
5452;SDS011;2749;53.576;9.822;2022-08-25T14:47:21;4.53;;;3.80;;
5452;SDS011;2749;53.576;9.822;2022-08-25T14:49:47;6.77;;;4.23;;
5452;SDS011;2749;53.576;9.822;2022-08-25T14:52:46;4.07;;;3.77;;
5452;SDS011;2749;53.576;9.822;2022-08-25T14:55:05;5.10;;;4.37;;
5452;SDS011;2749;53.576;9.822;2022-08-25T14:57:31;4.23;;;3.83;;
5452;SDS011;2749;53.576;9.822;2022-08-25T14:59:57;4.50;;;4.20;;
5452;SDS011;2749;53.576;9.822;2022-08-25T15:02:24;4.60;;;4.20;;
5452;SDS011;2749;53.576;9.822;2022-08-25T15:04:51;5.00;;;4.53;;
5452;SDS011;2749;53.576;9.822;2022-08-25T15:07:18;5.73;;;3.60;;
5452;SDS011;2749;53.576;9.822;2022-08-25T15:10:03;4.20;;;3.90;;
5452;SDS011;2749;53.576;9.822;2022-08-25T15:12:29;4.27;;;3.97;;
5452;SDS011;2749;53.576;9.822;2022-08-25T15:14:55;6.27;;;4.80;;
5452;SDS011;2749;53.576;9.822;2022-08-25T15:17:22;4.77;;;4.27;;
5452;SDS011;2749;53.576;9.822;2022-08-25T15:19:48;7.73;;;4.03;;
5452;SDS011;2749;53.576;9.822;2022-08-25T15:22:13;5.20;;;4.60;;
5452;SDS011;2749;53.576;9.822;2022-08-25T15:24:39;7.20;;;4.23;;
5452;SDS011;2749;53.576;9.822;2022-08-25T15:27:06;4.83;;;4.33;;
5452;SDS011;2749;53.576;9.822;2022-08-25T15:29:33;4.80;;;4.40;;
5452;SDS011;2749;53.576;9.822;2022-08-25T15:32:00;7.07;;;4.70;;
5452;SDS011;2749;53.576;9.822;2022-08-25T15:34:26;4.67;;;4.27;;
5452;SDS011;2749;53.576;9.822;2022-08-25T15:36:53;5.10;;;4.03;;
5452;SDS011;2749;53.576;9.822;2022-08-25T15:39:19;5.90;;;5.10;;
5452;SDS011;2749;53.576;9.822;2022-08-25T15:41:46;4.60;;;4.00;;
5452;SDS011;2749;53.576;9.822;2022-08-25T15:44:18;5.37;;;4.97;;
5452;SDS011;2749;53.576;9.822;2022-08-25T15:46:44;8.13;;;4.70;;
5452;SDS011;2749;53.576;9.822;2022-08-25T15:49:10;6.80;;;4.50;;
5452;SDS011;2749;53.576;9.822;2022-08-25T15:51:36;4.77;;;4.37;;
5452;SDS011;2749;53.576;9.822;2022-08-25T15:54:02;4.20;;;3.80;;
5452;SDS011;2749;53.576;9.822;2022-08-25T15:56:28;4.77;;;4.23;;
5452;SDS011;2749;53.576;9.822;2022-08-25T15:58:55;4.97;;;4.53;;
5452;SDS011;2749;53.576;9.822;2022-08-25T16:01:22;5.53;;;5.03;;
5452;SDS011;2749;53.576;9.822;2022-08-25T16:03:49;4.10;;;3.70;;
5452;SDS011;2749;53.576;9.822;2022-08-25T16:06:15;4.00;;;3.70;;
5452;SDS011;2749;53.576;9.822;2022-08-25T16:08:41;5.40;;;4.17;;
5452;SDS011;2749;53.576;9.822;2022-08-25T16:11:15;4.20;;;3.87;;
5452;SDS011;2749;53.576;9.822;2022-08-25T16:13:42;6.20;;;4.37;;
5452;SDS011;2749;53.576;9.822;2022-08-25T16:16:08;4.13;;;3.70;;
5452;SDS011;2749;53.576;9.822;2022-08-25T16:18:34;4.93;;;4.50;;
5452;SDS011;2749;53.576;9.822;2022-08-25T16:21:00;7.90;;;4.23;;
5452;SDS011;2749;53.576;9.822;2022-08-25T16:23:26;5.20;;;4.70;;
5452;SDS011;2749;53.576;9.822;2022-08-25T16:25:52;4.67;;;4.10;;
5452;SDS011;2749;53.576;9.822;2022-08-25T16:28:18;5.93;;;4.67;;
5452;SDS011;2749;53.576;9.822;2022-08-25T16:30:45;3.90;;;3.57;;